Time;durP1;ratioP1;P1;durP2;ratioP2;P2;SDS_P1;SDS_P2;PMS_P1;PMS_P2;Temp;Humidity;BMP_temperature;BMP_pressure;BME280_temperature;BME280_humidity;BME280_pressure;Samples;Min_cycle;Max_cycle;Signal;HPM_P1;HPM_P2
2021/07/30 00:00:27;;;;;;;;;;;;;;;14.56;72.73;101014.84;5053881;28;19920;-50
2021/07/30 00:02:54;;;;;;;;;;;;;;;14.53;73.17;101015.94;5052942;28;19927;-45
2021/07/30 00:05:20;;;;;;;;;;;;;;;14.50;72.86;101021.44;5054173;28;20253;-49
2021/07/30 00:07:47;;;;;;;;;;;;;;;14.58;72.16;101020.84;5052636;28;19927;-49
2021/07/30 00:10:14;;;;;;;;;;;;;;;14.51;72.85;101022.31;5054251;28;19927;-45
2021/07/30 00:12:40;;;;;;;;;;;;;;;14.48;72.94;101018.09;5052869;28;20388;-47
2021/07/30 00:15:07;;;;;;;;;;;;;;;14.43;73.64;101016.78;5069391;28;20387;-48
2021/07/30 00:17:34;;;;;;;;;;;;;;;14.43;73.00;101014.97;5054137;28;19920;-59
2021/07/30 00:20:02;;;;;;;;;;;;;;;14.37;73.48;101013.66;5053756;28;19974;-48
2021/07/30 00:22:28;;;;;;;;;;;;;;;14.35;73.58;101017.38;5052868;28;19921;-45
2021/07/30 00:24:56;;;;;;;;;;;;;;;14.22;73.98;101014.88;5068761;28;19921;-48
2021/07/30 00:27:22;;;;;;;;;;;;;;;14.20;74.23;101017.59;5053737;28;19928;-49
2021/07/30 00:29:49;;;;;;;;;;;;;;;14.21;74.16;101010.53;5068819;28;19951;-49
2021/07/30 00:32:16;;;;;;;;;;;;;;;14.16;74.67;101023.25;5053695;28;20379;-59
2021/07/30 00:34:42;;;;;;;;;;;;;;;14.30;73.89;101023.03;5068923;28;19924;-47
2021/07/30 00:37:09;;;;;;;;;;;;;;;14.14;74.31;101014.63;5052218;28;19920;-58
2021/07/30 00:39:36;;;;;;;;;;;;;;;14.10;74.25;101016.66;5051716;28;19975;-58
2021/07/30 00:42:02;;;;;;;;;;;;;;;14.09;75.21;101009.66;5053421;28;19975;-59
2021/07/30 00:44:29;;;;;;;;;;;;;;;14.12;74.56;101008.59;5053205;28;19920;-58
2021/07/30 00:46:59;;;;;;;;;;;;;;;14.08;75.10;101009.78;5053155;28;19948;-58
2021/07/30 00:49:25;;;;;;;;;;;;;;;14.04;74.49;101011.81;5053034;28;19928;-58
2021/07/30 00:51:52;;;;;;;;;;;;;;;13.98;74.62;101005.19;5053120;28;19931;-60
2021/07/30 00:54:19;;;;;;;;;;;;;;;13.99;74.78;101004.25;5052190;28;19927;-59
2021/07/30 00:56:46;;;;;;;;;;;;;;;13.96;75.67;101012.44;5053256;28;19921;-59
2021/07/30 00:59:12;;;;;;;;;;;;;;;13.98;75.63;101007.84;5068050;28;19921;-49
2021/07/30 01:01:39;;;;;;;;;;;;;;;13.86;75.34;101008.78;5052824;28;19925;-60
2021/07/30 01:04:06;;;;;;;;;;;;;;;13.86;75.85;101009.66;5052979;28;20032;-58
2021/07/30 01:06:33;;;;;;;;;;;;;;;13.98;74.93;101020.25;5053122;28;19920;-50
2021/07/30 01:08:59;;;;;;;;;;;;;;;13.92;75.22;101016.28;5053115;28;20326;-49
2021/07/30 01:11:26;;;;;;;;;;;;;;;13.78;75.90;101005.88;5052971;28;20300;-45
2021/07/30 01:13:52;;;;;;;;;;;;;;;13.77;76.31;101014.78;5052942;28;19966;-47
2021/07/30 01:16:19;;;;;;;;;;;;;;;13.75;76.29;101008.78;5053101;28;20012;-49
2021/07/30 01:18:46;;;;;;;;;;;;;;;13.73;76.09;101010.69;5052818;28;20033;-59
2021/07/30 01:21:18;;;;;;;;;;;;;;;13.71;76.23;101007.31;5052756;28;19924;-48
2021/07/30 01:23:46;;;;;;;;;;;;;;;13.77;76.67;101004.19;5052759;28;20287;-47
2021/07/30 01:26:13;;;;;;;;;;;;;;;13.69;76.66;101004.81;5052750;28;19927;-48
2021/07/30 01:28:40;;;;;;;;;;;;;;;13.73;76.94;101000.97;5067965;28;19921;-47
2021/07/30 01:31:06;;;;;;;;;;;;;;;13.71;76.86;100997.59;5052872;28;20279;-49
2021/07/30 01:33:33;;;;;;;;;;;;;;;13.71;76.28;100992.28;5052448;28;19925;-49
2021/07/30 01:36:00;;;;;;;;;;;;;;;13.64;76.38;100991.91;5052500;28;19932;-58
2021/07/30 01:38:26;;;;;;;;;;;;;;;13.57;76.31;100995.16;5052699;28;19921;-58
2021/07/30 01:40:53;;;;;;;;;;;;;;;13.50;76.74;101000.06;5052171;28;19944;-59
2021/07/30 01:43:19;;;;;;;;;;;;;;;13.51;76.52;100992.03;5052507;28;20030;-58
2021/07/30 01:45:46;;;;;;;;;;;;;;;13.44;76.67;100996.09;5052096;28;19920;-58
2021/07/30 01:48:13;;;;;;;;;;;;;;;13.41;77.02;100993.66;5052496;28;20388;-58
2021/07/30 01:50:39;;;;;;;;;;;;;;;13.49;76.95;100993.91;5052523;28;19928;-58
2021/07/30 01:53:06;;;;;;;;;;;;;;;13.48;77.53;100991.41;5052633;28;20388;-60
2021/07/30 01:55:33;;;;;;;;;;;;;;;13.39;77.97;100978.88;5052550;28;20276;-58
2021/07/30 01:57:59;;;;;;;;;;;;;;;13.48;77.33;100986.97;5051350;28;19924;-45
2021/07/30 02:00:26;;;;;;;;;;;;;;;13.41;77.20;100991.00;5052064;28;19920;-48
2021/07/30 02:02:53;;;;;;;;;;;;;;;13.42;77.49;100983.94;5052224;28;20337;-59
2021/07/30 02:05:20;;;;;;;;;;;;;;;13.28;77.92;100985.78;5051894;28;19921;-59
2021/07/30 02:07:46;;;;;;;;;;;;;;;13.22;77.95;100986.22;5051428;28;19921;-59
2021/07/30 02:10:13;;;;;;;;;;;;;;;13.27;77.68;100986.72;5052051;28;20340;-59
2021/07/30 02:15:25;;;;;;;;;;;;;;;13.26;77.10;100989.50;5052259;28;19936;-59
2021/07/30 02:17:52;;;;;;;;;;;;;;;13.22;77.55;100985.38;5051135;28;19924;-49
2021/07/30 02:20:18;;;;;;;;;;;;;;;13.14;77.94;100984.16;5050880;28;19921;-59
2021/07/30 02:22:45;;;;;;;;;;;;;;;13.14;77.82;100980.66;5052035;28;19949;-44
2021/07/30 02:25:11;;;;;;;;;;;;;;;13.16;77.58;100984.06;5051099;28;19920;-47
2021/07/30 02:27:39;;;;;;;;;;;;;;;13.20;77.29;100977.59;5051672;28;19920;-49
2021/07/30 02:30:05;;;;;;;;;;;;;;;13.11;78.53;100973.81;5067440;28;20326;-47
2021/07/30 02:32:32;;;;;;;;;;;;;;;13.08;78.23;100976.69;5052124;28;19986;-58
2021/07/30 02:35:00;;;;;;;;;;;;;;;12.99;79.26;100978.22;5051829;28;19920;-45
2021/07/30 02:37:26;;;;;;;;;;;;;;;13.09;78.67;100981.03;5052000;28;19960;-45
2021/07/30 02:39:53;;;;;;;;;;;;;;;13.07;78.82;100982.09;5051827;28;20441;-49
2021/07/30 02:42:19;;;;;;;;;;;;;;;13.06;78.30;100975.97;5051765;28;19924;-50
2021/07/30 02:44:46;;;;;;;;;;;;;;;13.06;78.03;100973.34;5051925;28;19921;-47
2021/07/30 02:47:13;;;;;;;;;;;;;;;13.00;78.69;100982.50;5054424;28;19943;-50
2021/07/30 02:49:39;;;;;;;;;;;;;;;12.95;78.73;100974.13;5055568;28;20376;-48
2021/07/30 02:52:06;;;;;;;;;;;;;;;13.02;78.06;100974.50;5055616;28;19921;-49
2021/07/30 02:54:33;;;;;;;;;;;;;;;13.04;77.96;100982.31;5055483;28;19974;-47
2021/07/30 02:56:59;;;;;;;;;;;;;;;13.00;78.23;100976.41;5055469;28;19920;-49
2021/07/30 02:59:26;;;;;;;;;;;;;;;12.97;78.09;100974.84;5055277;28;19928;-45
2021/07/30 03:01:53;;;;;;;;;;;;;;;12.92;78.46;100971.69;5055281;28;19964;-48
2021/07/30 03:04:19;;;;;;;;;;;;;;;12.94;78.55;100961.88;5054111;28;19920;-49
2021/07/30 03:06:46;;;;;;;;;;;;;;;12.90;78.52;100965.69;5055266;28;19920;-48
2021/07/30 03:09:13;;;;;;;;;;;;;;;12.87;78.69;100960.63;5055039;28;19924;-48
2021/07/30 03:11:39;;;;;;;;;;;;;;;12.95;78.10;100963.56;5055289;28;19969;-59
2021/07/30 03:14:06;;;;;;;;;;;;;;;12.87;78.24;100955.34;5055167;28;19920;-59
2021/07/30 03:16:33;;;;;;;;;;;;;;;12.85;78.89;100950.16;5054209;28;19947;-59
2021/07/30 03:19:00;;;;;;;;;;;;;;;12.81;78.86;100948.69;5055481;28;19927;-48
2021/07/30 03:21:27;;;;;;;;;;;;;;;12.83;78.86;100943.34;5055146;28;19920;-58
2021/07/30 03:23:54;;;;;;;;;;;;;;;12.81;78.50;100946.06;5055028;28;20337;-59
2021/07/30 03:26:21;;;;;;;;;;;;;;;12.80;78.40;100954.09;5055028;28;19925;-59
2021/07/30 03:28:48;;;;;;;;;;;;;;;12.76;78.59;100944.72;5055130;28;19921;-48
2021/07/30 03:31:15;;;;;;;;;;;;;;;12.75;78.74;100957.09;5054702;28;19927;-50
2021/07/30 03:33:41;;;;;;;;;;;;;;;12.70;79.32;100940.75;5054747;28;20012;-59
2021/07/30 03:36:08;;;;;;;;;;;;;;;12.80;79.10;100933.84;5054837;28;19921;-59
2021/07/30 03:38:35;;;;;;;;;;;;;;;12.69;79.82;100941.69;5055013;28;20404;-59
2021/07/30 03:41:02;;;;;;;;;;;;;;;12.65;79.79;100941.09;5069741;28;19974;-50
2021/07/30 03:43:29;;;;;;;;;;;;;;;12.74;79.42;100936.09;5070176;28;19920;-59
2021/07/30 03:45:56;;;;;;;;;;;;;;;12.71;79.64;100945.06;5070115;28;19921;-59
2021/07/30 03:48:22;;;;;;;;;;;;;;;12.67;80.30;100939.16;5054502;28;20359;-60
2021/07/30 03:50:49;;;;;;;;;;;;;;;12.72;79.92;100930.94;5054562;28;19932;-47
2021/07/30 03:53:16;;;;;;;;;;;;;;;12.64;80.15;100933.28;5054301;28;19925;-47
2021/07/30 03:55:43;;;;;;;;;;;;;;;12.61;80.61;100938.75;5054341;28;20315;-60
2021/07/30 03:58:09;;;;;;;;;;;;;;;12.68;80.28;100942.66;5053834;28;19924;-49
2021/07/30 04:00:39;;;;;;;;;;;;;;;12.68;79.98;100945.31;5054191;28;20261;-49
2021/07/30 04:03:06;;;;;;;;;;;;;;;12.71;80.67;100933.66;5054207;28;20441;-49
2021/07/30 04:05:32;;;;;;;;;;;;;;;12.68;81.37;100934.75;5054098;28;19928;-48
2021/07/30 04:07:59;;;;;;;;;;;;;;;12.67;81.69;100941.81;5054256;28;19921;-48
2021/07/30 04:10:26;;;;;;;;;;;;;;;12.61;81.88;100939.63;5052720;28;19920;-59
2021/07/30 04:12:53;;;;;;;;;;;;;;;12.68;81.87;100940.84;5069265;28;19920;-60
2021/07/30 04:15:20;;;;;;;;;;;;;;;12.62;81.80;100936.00;5054033;28;19920;-46
2021/07/30 04:17:48;;;;;;;;;;;;;;;12.63;82.00;100937.69;5069294;28;19927;-48
2021/07/30 04:20:15;;;;;;;;;;;;;;;12.61;82.26;100936.97;5053746;28;19974;-50
2021/07/30 04:22:41;;;;;;;;;;;;;;;12.60;82.19;100927.38;5069009;28;19925;-60
2021/07/30 04:25:08;;;;;;;;;;;;;;;12.60;82.11;100930.00;5053931;28;20375;-60
2021/07/30 04:27:34;;;;;;;;;;;;;;;12.76;81.96;100932.38;5053877;28;20314;-60
2021/07/30 04:30:01;;;;;;;;;;;;;;;12.68;82.36;100930.31;5068835;28;19924;-60
2021/07/30 04:32:28;;;;;;;;;;;;;;;12.78;82.27;100932.28;5053599;28;19924;-60
2021/07/30 04:34:55;;;;;;;;;;;;;;;12.78;82.12;100935.75;5053542;28;20381;-60
2021/07/30 04:37:22;;;;;;;;;;;;;;;12.80;81.37;100927.72;5053532;28;20336;-59
2021/07/30 04:39:49;;;;;;;;;;;;;;;12.80;81.20;100928.56;5052262;28;19921;-59
2021/07/30 04:42:15;;;;;;;;;;;;;;;12.79;81.77;100931.31;5052041;28;19975;-48
2021/07/30 04:44:42;;;;;;;;;;;;;;;12.72;82.26;100920.38;5053451;28;19921;-49
2021/07/30 04:47:08;;;;;;;;;;;;;;;12.76;82.29;100931.53;5053425;28;20310;-47
2021/07/30 04:49:35;;;;;;;;;;;;;;;12.78;82.20;100924.34;5052203;28;19924;-49
2021/07/30 04:52:02;;;;;;;;;;;;;;;12.77;82.60;100931.41;5053488;28;20334;-49
2021/07/30 04:54:28;;;;;;;;;;;;;;;12.84;82.43;100915.97;5052145;28;19921;-45
2021/07/30 04:56:55;;;;;;;;;;;;;;;12.89;82.67;100919.13;5068509;28;19928;-48
2021/07/30 04:59:22;;;;;;;;;;;;;;;12.92;82.52;100920.69;5053069;28;19925;-60
2021/07/30 05:01:48;;;;;;;;;;;;;;;12.92;82.98;100907.50;5052819;28;19928;-60
2021/07/30 05:04:17;;;;;;;;;;;;;;;12.98;82.36;100915.81;5052095;28;20395;-52
2021/07/30 05:06:44;;;;;;;;;;;;;;;13.04;82.75;100914.50;5052978;28;19924;-50
2021/07/30 05:09:11;;;;;;;;;;;;;;;13.15;82.91;100911.06;5052732;28;20297;-60
2021/07/30 05:11:37;;;;;;;;;;;;;;;13.19;82.86;100908.06;5051931;28;20414;-60
2021/07/30 05:14:04;;;;;;;;;;;;;;;13.26;82.59;100907.63;5051898;28;19990;-52
2021/07/30 05:16:31;;;;;;;;;;;;;;;13.40;82.17;100917.16;5052739;28;19927;-51
2021/07/30 05:18:57;;;;;;;;;;;;;;;13.38;82.43;100911.16;5053007;28;20579;-47
2021/07/30 05:21:24;;;;;;;;;;;;;;;13.44;82.43;100908.03;5052784;28;19921;-47
2021/07/30 05:23:51;;;;;;;;;;;;;;;13.51;82.27;100909.25;5052692;28;19970;-48
2021/07/30 05:26:17;;;;;;;;;;;;;;;13.55;82.91;100912.50;5053030;28;20270;-48
2021/07/30 05:28:44;;;;;;;;;;;;;;;13.62;83.14;100916.34;5052698;28;20371;-49
2021/07/30 05:31:14;;;;;;;;;;;;;;;13.64;83.24;100912.66;5052661;28;20295;-51
2021/07/30 05:33:41;;;;;;;;;;;;;;;13.71;83.20;100909.53;5052843;28;19921;-60
2021/07/30 05:36:12;;;;;;;;;;;;;;;13.78;82.83;100897.53;5068455;28;20260;-48
2021/07/30 05:38:38;;;;;;;;;;;;;;;13.88;82.75;100901.16;5052721;28;19921;-47
2021/07/30 05:41:05;;;;;;;;;;;;;;;13.93;82.27;100906.06;5052706;28;20311;-47
2021/07/30 05:43:32;;;;;;;;;;;;;;;13.99;82.34;100903.78;5052616;28;19921;-51
2021/07/30 05:46:00;;;;;;;;;;;;;;;14.08;81.59;100911.94;5052734;28;20011;-51
2021/07/30 05:48:27;;;;;;;;;;;;;;;14.15;81.29;100900.78;5052598;28;19939;-59
2021/07/30 05:50:53;;;;;;;;;;;;;;;14.24;81.37;100904.47;5052445;28;19921;-48
2021/07/30 05:53:20;;;;;;;;;;;;;;;14.34;81.04;100900.16;5052545;28;19928;-51
2021/07/30 05:55:47;;;;;;;;;;;;;;;14.39;81.12;100894.47;5051396;28;20453;-47
2021/07/30 05:58:13;;;;;;;;;;;;;;;14.46;80.49;100895.66;5052361;28;19983;-51
2021/07/30 06:00:40;;;;;;;;;;;;;;;14.57;81.11;100899.25;5052756;28;19920;-50
2021/07/30 06:03:07;;;;;;;;;;;;;;;14.64;80.98;100903.97;5052359;28;19986;-49
2021/07/30 06:05:34;;;;;;;;;;;;;;;14.82;79.00;100895.44;5067595;28;19925;-50
2021/07/30 06:08:05;;;;;;;;;;;;;;;14.88;79.58;100901.09;5051364;28;19925;-49
2021/07/30 06:10:32;;;;;;;;;;;;;;;15.09;78.88;100896.78;5052551;28;19921;-49
2021/07/30 06:12:59;;;;;;;;;;;;;;;15.26;78.14;100890.91;5067538;28;20011;-47
2021/07/30 06:15:25;;;;;;;;;;;;;;;15.43;77.50;100897.44;5052346;28;19947;-51
2021/07/30 06:17:52;;;;;;;;;;;;;;;15.47;77.15;100890.06;5051249;28;19928;-49
2021/07/30 06:20:19;;;;;;;;;;;;;;;15.58;78.36;100895.28;5053186;28;20267;-51
2021/07/30 06:22:46;;;;;;;;;;;;;;;15.66;77.07;100892.81;5071179;28;19921;-49
2021/07/30 06:25:13;;;;;;;;;;;;;;;15.71;77.54;100887.13;5056148;28;19927;-49
2021/07/30 06:27:39;;;;;;;;;;;;;;;15.83;76.66;100886.09;5056107;28;19928;-60
2021/07/30 06:30:07;;;;;;;;;;;;;;;15.89;76.78;100876.75;5071336;28;19943;-51
2021/07/30 06:32:34;;;;;;;;;;;;;;;15.95;76.81;100883.34;5037850;28;19928;-51
2021/07/30 06:35:01;;;;;;;;;;;;;;;16.04;76.87;100882.53;5055758;28;19983;-48
2021/07/30 06:37:31;;;;;;;;;;;;;;;16.22;78.97;100877.41;5055750;28;19921;-60
2021/07/30 06:39:58;;;;;;;;;;;;;;;16.41;77.27;100876.63;5071038;28;19921;-61
2021/07/30 06:42:25;;;;;;;;;;;;;;;16.60;78.20;100875.81;5055826;28;19921;-61
2021/07/30 06:44:51;;;;;;;;;;;;;;;16.82;73.21;100876.50;5055613;28;19921;-50
2021/07/30 06:47:23;;;;;;;;;;;;;;;16.87;74.86;100876.94;5055471;28;19921;-49
2021/07/30 06:49:50;;;;;;;;;;;;;;;16.89;73.21;100875.00;5055658;28;19921;-61
2021/07/30 06:52:17;;;;;;;;;;;;;;;16.91;75.21;100870.41;5070850;28;19990;-60
2021/07/30 06:54:43;;;;;;;;;;;;;;;17.04;73.45;100865.66;5055519;28;19920;-61
2021/07/30 06:57:11;;;;;;;;;;;;;;;17.09;72.37;100869.69;5055654;28;19927;-61
2021/07/30 06:59:38;;;;;;;;;;;;;;;17.24;74.49;100874.41;5070581;28;19970;-60
2021/07/30 07:02:04;;;;;;;;;;;;;;;17.32;71.33;100871.03;5055277;28;19920;-60
2021/07/30 07:04:31;;;;;;;;;;;;;;;17.46;71.19;100867.06;5055455;28;19927;-60
2021/07/30 07:06:58;;;;;;;;;;;;;;;17.59;70.07;100866.78;5070532;28;19920;-60
2021/07/30 07:09:25;;;;;;;;;;;;;;;17.73;69.63;100863.63;5055246;28;20383;-60
2021/07/30 07:11:51;;;;;;;;;;;;;;;17.77;69.14;100863.34;5055027;28;19921;-50
2021/07/30 07:14:18;;;;;;;;;;;;;;;17.93;69.17;100863.59;5055189;28;20383;-61
2021/07/30 07:16:45;;;;;;;;;;;;;;;18.01;68.62;100858.38;5055201;28;20358;-61
2021/07/30 07:19:12;;;;;;;;;;;;;;;18.08;69.60;100848.78;5054953;28;19974;-61
2021/07/30 07:21:38;;;;;;;;;;;;;;;18.26;69.23;100855.97;5054949;28;20023;-50
2021/07/30 07:24:06;;;;;;;;;;;;;;;18.23;68.33;100843.81;5053657;28;20346;-60
2021/07/30 07:26:35;;;;;;;;;;;;;;;18.45;68.76;100844.34;5070356;28;19921;-49
2021/07/30 07:29:02;;;;;;;;;;;;;;;18.50;67.16;100849.22;5054843;28;19921;-51
2021/07/30 07:31:29;;;;;;;;;;;;;;;18.62;66.61;100842.66;5053358;28;19925;-50
2021/07/30 07:33:56;;;;;;;;;;;;;;;18.63;67.27;100838.19;5054380;28;19920;-48
2021/07/30 07:36:22;;;;;;;;;;;;;;;18.85;67.28;100842.22;5069974;28;19921;-50
2021/07/30 07:38:49;;;;;;;;;;;;;;;18.92;66.85;100845.94;5069884;28;19920;-51
2021/07/30 07:41:16;;;;;;;;;;;;;;;19.03;65.09;100840.41;5069942;28;19925;-51
2021/07/30 07:43:42;;;;;;;;;;;;;;;19.20;65.82;100853.84;5054302;28;19970;-50
2021/07/30 07:46:09;;;;;;;;;;;;;;;19.21;64.91;100842.16;5054597;28;19920;-47
2021/07/30 07:48:36;;;;;;;;;;;;;;;19.34;64.36;100839.91;5054481;28;19974;-50
2021/07/30 07:51:02;;;;;;;;;;;;;;;19.17;63.91;100838.13;5069800;28;19947;-48
2021/07/30 07:53:29;;;;;;;;;;;;;;;19.29;64.55;100839.53;5054680;28;19920;-49
2021/07/30 07:56:03;;;;;;;;;;;;;;;19.42;65.39;100839.97;5054614;28;20295;-49
2021/07/30 07:58:30;;;;;;;;;;;;;;;19.49;63.95;100837.50;5054099;28;19990;-59
2021/07/30 08:00:56;;;;;;;;;;;;;;;19.71;63.29;100835.28;5054178;28;19921;-46
2021/07/30 08:03:23;;;;;;;;;;;;;;;19.97;63.59;100835.22;5054079;28;19936;-59
2021/07/30 08:05:51;;;;;;;;;;;;;;;20.11;62.64;100820.44;5069226;28;19928;-60
2021/07/30 08:08:18;;;;;;;;;;;;;;;20.13;60.84;100825.63;5069641;28;20279;-59
2021/07/30 08:10:44;;;;;;;;;;;;;;;20.27;61.18;100816.94;5054089;28;19924;-59
2021/07/30 08:13:12;;;;;;;;;;;;;;;20.54;59.51;100817.66;5053938;28;19924;-59
2021/07/30 08:15:40;;;;;;;;;;;;;;;20.70;59.27;100819.53;5069085;28;19921;-47
2021/07/30 08:18:07;;;;;;;;;;;;;;;20.92;59.18;100818.84;5053773;28;19928;-60
2021/07/30 08:20:33;;;;;;;;;;;;;;;21.10;58.14;100816.00;5069111;28;19975;-59
2021/07/30 08:23:00;;;;;;;;;;;;;;;21.34;57.26;100819.63;5053690;28;20378;-59
2021/07/30 08:25:27;;;;;;;;;;;;;;;21.28;56.34;100810.44;5053930;28;20268;-59
2021/07/30 08:27:54;;;;;;;;;;;;;;;21.41;58.60;100806.41;5068911;28;19920;-59
2021/07/30 08:30:21;;;;;;;;;;;;;;;21.37;56.92;100797.03;5053688;28;20003;-48
2021/07/30 08:32:47;;;;;;;;;;;;;;;21.64;57.87;100808.34;5053600;28;19921;-50
2021/07/30 08:35:14;;;;;;;;;;;;;;;21.91;56.19;100804.34;5052848;28;19921;-49
2021/07/30 08:37:41;;;;;;;;;;;;;;;21.90;56.91;100803.53;5052945;28;19921;-50
2021/07/30 08:40:08;;;;;;;;;;;;;;;22.16;55.30;100798.88;5053049;28;20042;-48
2021/07/30 08:42:35;;;;;;;;;;;;;;;22.20;55.67;100795.66;5053235;28;19929;-52
2021/07/30 08:45:03;;;;;;;;;;;;;;;22.33;54.77;100791.56;5052279;28;19920;-51
2021/07/30 08:47:29;;;;;;;;;;;;;;;22.33;54.54;100787.03;5053703;28;19921;-51
2021/07/30 08:49:57;;;;;;;;;;;;;;;22.41;55.76;100787.00;5068483;28;20382;-52
2021/07/30 08:52:27;;;;;;;;;;;;;;;22.38;56.12;100786.53;5068709;28;19920;-50
2021/07/30 08:54:55;;;;;;;;;;;;;;;22.64;55.62;100788.00;5053205;28;19921;-49
2021/07/30 08:57:21;;;;;;;;;;;;;;;22.79;53.84;100783.50;5052973;28;20007;-50
2021/07/30 08:59:48;;;;;;;;;;;;;;;22.84;53.49;100785.63;5052827;28;19921;-50
2021/07/30 09:02:14;;;;;;;;;;;;;;;22.89;52.02;100785.91;5035721;28;20374;-49
2021/07/30 09:04:41;;;;;;;;;;;;;;;22.83;52.08;100781.31;5052980;28;19928;-52
2021/07/30 09:07:08;;;;;;;;;;;;;;;22.86;51.87;100783.59;5052989;28;20318;-59
2021/07/30 09:09:35;;;;;;;;;;;;;;;23.07;52.24;100777.53;5053034;28;20372;-59
2021/07/30 09:12:02;;;;;;;;;;;;;;;23.06;52.87;100776.69;5052817;28;19931;-59
2021/07/30 09:14:33;;;;;;;;;;;;;;;23.20;52.21;100776.94;5068142;28;19967;-59
2021/07/30 09:17:00;;;;;;;;;;;;;;;23.40;50.46;100767.28;5052744;28;20272;-60
2021/07/30 09:19:27;;;;;;;;;;;;;;;23.44;51.20;100770.44;5052695;28;20375;-51
2021/07/30 09:22:07;;;;;;;;;;;;;;;23.66;51.04;100767.81;5068129;28;19921;-49
2021/07/30 09:24:34;;;;;;;;;;;;;;;23.78;49.71;100759.09;5052638;28;20573;-50
2021/07/30 09:27:01;;;;;;;;;;;;;;;24.08;50.47;100750.97;5052650;28;20356;-59
2021/07/30 09:29:28;;;;;;;;;;;;;;;24.21;49.56;100752.13;5068056;28;20275;-59
2021/07/30 09:31:58;;;;;;;;;;;;;;;24.29;47.85;100749.28;5067999;28;19928;-60
2021/07/30 09:34:44;;;;;;;;;;;;;;;24.42;49.40;100746.72;5052733;28;20407;-60
2021/07/30 09:37:17;;;;;;;;;;;;;;;24.58;47.87;100736.72;5052443;28;19928;-60
2021/07/30 09:39:49;;;;;;;;;;;;;;;24.54;48.20;100746.19;5052487;28;19927;-60
2021/07/30 09:42:23;;;;;;;;;;;;;;;24.76;48.53;100745.16;5067432;28;19925;-60
2021/07/30 09:44:52;;;;;;;;;;;;;;;24.96;46.42;100739.94;5067471;28;19921;-60
2021/07/30 09:47:27;;;;;;;;;;;;;;;24.85;46.54;100732.38;5052529;28;19921;-60
2021/07/30 09:49:54;;;;;;;;;;;;;;;25.41;47.54;100723.38;5051355;28;19921;-60
2021/07/30 09:52:24;;;;;;;;;;;;;;;25.53;46.57;100729.03;5067814;28;20350;-60
2021/07/30 09:54:51;;;;;;;;;;;;;;;25.35;45.41;100732.28;5052715;28;19921;-60
2021/07/30 09:57:18;;;;;;;;;;;;;;;25.37;45.68;100718.63;5056548;28;20391;-51
2021/07/30 09:59:45;;;;;;;;;;;;;;;25.52;43.69;100708.53;5054757;28;19925;-50
2021/07/30 10:02:13;;;;;;;;;;;;;;;25.38;43.94;100712.22;5071616;28;19971;-52
2021/07/30 10:04:44;;;;;;;;;;;;;;;25.53;44.53;100702.13;5071712;28;19963;-51
2021/07/30 10:07:11;;;;;;;;;;;;;;;25.64;44.72;100698.81;5056553;28;19921;-46
2021/07/30 10:09:38;;;;;;;;;;;;;;;25.86;44.79;100704.06;5055075;28;19928;-51
2021/07/30 10:12:05;;;;;;;;;;;;;;;25.60;43.10;100694.06;5056629;28;19920;-51
2021/07/30 10:14:32;;;;;;;;;;;;;;;25.75;44.33;100701.97;5056133;28;19956;-48
2021/07/30 10:17:02;;;;;;;;;;;;;;;25.95;43.78;100704.69;5056353;28;19921;-51
2021/07/30 10:19:30;;;;;;;;;;;;;;;26.19;43.76;100689.00;5055129;28;19951;-51
2021/07/30 10:21:59;;;;;;;;;;;;;;;25.91;42.92;100695.38;5056175;28;19924;-46
2021/07/30 10:24:26;;;;;;;;;;;;;;;25.75;43.96;100693.88;5071047;28;20419;-50
2021/07/30 10:26:53;;;;;;;;;;;;;;;26.20;44.77;100686.09;5055862;28;19921;-50
2021/07/30 10:29:20;;;;;;;;;;;;;;;26.34;43.10;100686.91;5055836;28;19967;-49
2021/07/30 10:31:48;;;;;;;;;;;;;;;26.60;44.10;100685.22;5071288;28;19931;-52
2021/07/30 10:34:19;;;;;;;;;;;;;;;26.80;43.77;100687.91;5055886;28;19966;-59
2021/07/30 10:36:45;;;;;;;;;;;;;;;26.56;43.00;100684.00;5071126;28;19921;-59
2021/07/30 10:39:15;;;;;;;;;;;;;;;26.73;44.59;100684.41;5055908;28;20423;-50
2021/07/30 10:42:01;;;;;;;;;;;;;;;26.76;42.85;100679.41;5055749;28;19921;-48
2021/07/30 10:44:27;;;;;;;;;;;;;;;26.30;42.32;100667.66;5055976;28;20371;-52
2021/07/30 10:47:13;;;;;;;;;;;;;;;26.26;42.47;100665.56;5055669;28;19927;-49
2021/07/30 10:49:40;;;;;;;;;;;;;;;26.48;43.05;100658.09;5055793;28;19972;-51
2021/07/30 10:52:33;;;;;;;;;;;;;;;26.80;43.78;100659.06;5054362;28;19920;-52
2021/07/30 10:55:00;;;;;;;;;;;;;;;26.88;42.68;100655.31;5053650;28;20011;-51
2021/07/30 10:57:45;;;;;;;;;;;;;;;26.88;42.83;100659.91;5055510;28;19925;-60
2021/07/30 11:00:12;;;;;;;;;;;;;;;26.96;44.13;100652.38;5070611;28;19921;-52
2021/07/30 11:02:59;;;;;;;;;;;;;;;27.26;41.74;100646.44;5055696;28;19920;-51
2021/07/30 11:05:26;;;;;;;;;;;;;;;27.11;41.68;100644.03;5055572;28;19927;-59
2021/07/30 11:08:02;;;;;;;;;;;;;;;27.40;41.71;100641.00;5069516;28;19925;-60
2021/07/30 11:10:29;;;;;;;;;;;;;;;27.36;40.77;100639.75;5070597;28;20308;-61
2021/07/30 11:12:55;;;;;;;;;;;;;;;27.58;40.99;100629.47;5055136;28;19960;-61
2021/07/30 11:15:22;;;;;;;;;;;;;;;27.37;40.95;100617.16;5055168;28;20310;-61
2021/07/30 11:17:49;;;;;;;;;;;;;;;27.60;41.44;100625.50;5070641;28;19920;-59
2021/07/30 11:20:16;;;;;;;;;;;;;;;27.66;41.53;100619.25;5055104;28;19921;-60
2021/07/30 11:22:43;;;;;;;;;;;;;;;27.70;40.16;100608.81;5055370;28;20429;-60
2021/07/30 11:25:13;;;;;;;;;;;;;;;27.93;40.76;100616.31;5053625;28;19921;-50
2021/07/30 11:27:40;;;;;;;;;;;;;;;28.01;41.23;100614.44;5054735;28;19921;-51
2021/07/30 11:30:07;;;;;;;;;;;;;;;28.01;39.72;100611.75;5054944;28;19924;-52
2021/07/30 11:32:33;;;;;;;;;;;;;;;27.94;39.65;100612.59;5053715;28;20427;-60
2021/07/30 11:35:08;;;;;;;;;;;;;;;27.92;41.25;100616.53;5053371;28;20302;-51
2021/07/30 11:37:35;;;;;;;;;;;;;;;28.19;41.00;100616.34;5054898;28;20351;-52
2021/07/30 11:40:03;;;;;;;;;;;;;;;28.28;40.25;100613.13;5054679;28;20421;-50
2021/07/30 11:42:31;;;;;;;;;;;;;;;28.32;39.29;100600.00;5069971;28;19920;-52
2021/07/30 11:45:04;;;;;;;;;;;;;;;28.21;39.43;100600.72;5053188;28;20455;-50
2021/07/30 11:47:31;;;;;;;;;;;;;;;28.40;39.31;100602.41;5054647;28;19948;-49
2021/07/30 11:50:08;;;;;;;;;;;;;;;28.66;38.80;100605.91;5053133;28;19921;-51
2021/07/30 11:52:37;;;;;;;;;;;;;;;29.13;38.32;100600.72;5053382;28;19924;-53
2021/07/30 11:55:17;;;;;;;;;;;;;;;28.92;36.42;100585.81;5054727;28;19920;-53
2021/07/30 11:57:44;;;;;;;;;;;;;;;28.64;39.85;100594.47;5069732;28;19921;-52
2021/07/30 12:00:20;;;;;;;;;;;;;;;28.30;37.63;100583.16;5054176;28;19954;-50
2021/07/30 12:02:47;;;;;;;;;;;;;;;27.99;39.67;100590.28;5054516;28;20385;-52
2021/07/30 12:05:14;;;;;;;;;;;;;;;28.15;37.39;100588.94;5053943;28;19928;-52
2021/07/30 12:07:40;;;;;;;;;;;;;;;28.29;37.89;100582.34;5069698;28;19986;-48
2021/07/30 12:10:08;;;;;;;;;;;;;;;28.24;37.55;100573.28;5054027;28;19974;-60
2021/07/30 12:12:38;;;;;;;;;;;;;;;28.57;39.50;100569.38;5069332;28;19927;-60
2021/07/30 12:15:05;;;;;;;;;;;;;;;28.23;38.84;100560.78;5052536;28;19921;-59
2021/07/30 12:17:32;;;;;;;;;;;;;;;27.84;40.10;100571.72;5053653;28;19927;-60
2021/07/30 12:20:01;;;;;;;;;;;;;;;27.94;39.06;100565.84;5053566;28;20397;-60
2021/07/30 12:22:35;;;;;;;;;;;;;;;27.79;39.00;100566.16;5069159;28;19924;-60
2021/07/30 12:25:02;;;;;;;;;;;;;;;27.61;40.79;100556.09;5053384;28;19978;-60
2021/07/30 12:27:28;;;;;;;;;;;;;;;27.56;39.01;100556.78;5053817;28;19921;-60
2021/07/30 12:29:56;;;;;;;;;;;;;;;27.22;40.14;100558.03;5053696;28;20020;-60
2021/07/30 12:32:23;;;;;;;;;;;;;;;27.54;40.76;100555.34;5069067;28;20374;-60
2021/07/30 12:34:57;;;;;;;;;;;;;;;27.27;41.42;100547.44;5068929;28;19971;-60
2021/07/30 12:37:24;;;;;;;;;;;;;;;27.28;41.36;100549.91;5053960;28;20418;-60
2021/07/30 12:39:52;;;;;;;;;;;;;;;27.22;41.28;100542.66;5053606;28;19971;-60